createdAt,value
2023-05-23T00:00:17.062Z,15.06
2023-05-23T00:02:44.804Z,15.02
2023-05-23T00:05:11.581Z,15.00
2023-05-23T00:07:38.253Z,14.98
2023-05-23T00:10:06.393Z,14.95
2023-05-23T00:12:33.684Z,14.92
2023-05-23T00:15:00.765Z,14.86
2023-05-23T00:17:27.992Z,14.82
2023-05-23T00:19:56.169Z,14.89
2023-05-23T00:22:23.065Z,14.85
2023-05-23T00:24:49.749Z,14.83
2023-05-23T00:27:16.508Z,14.78
2023-05-23T00:29:43.086Z,14.79
2023-05-23T00:32:09.903Z,14.85
2023-05-23T00:34:37.847Z,14.80
2023-05-23T00:37:05.198Z,14.82
2023-05-23T00:39:32.008Z,14.80
2023-05-23T00:41:58.689Z,14.84
2023-05-23T00:44:26.316Z,14.75
2023-05-23T00:46:56.644Z,14.78
2023-05-23T00:49:24.046Z,14.90
2023-05-23T00:51:52.218Z,14.98
2023-05-23T00:54:22.526Z,15.01
2023-05-23T00:56:49.476Z,15.00
2023-05-23T00:59:16.764Z,14.94
2023-05-23T01:01:47.165Z,14.92
2023-05-23T01:04:16.708Z,14.85
2023-05-23T01:06:47.223Z,14.75
2023-05-23T01:09:16.634Z,14.71
2023-05-23T01:11:58.741Z,14.52
2023-05-23T01:14:42.501Z,14.51
2023-05-23T01:17:18.752Z,14.59
2023-05-23T01:20:09.333Z,14.56
2023-05-23T01:22:55.426Z,14.56
2023-05-23T01:25:59.525Z,14.45
2023-05-23T01:28:31.818Z,14.26
2023-05-23T01:31:02.615Z,14.32
2023-05-23T01:33:30.856Z,14.29
2023-05-23T01:35:58.405Z,14.42
2023-05-23T01:38:26.184Z,14.37
2023-05-23T01:40:54.150Z,14.38
2023-05-23T01:43:21.537Z,14.27
2023-05-23T01:45:49.166Z,14.09
2023-05-23T01:48:17.559Z,13.86
2023-05-23T01:50:47.498Z,13.89
2023-05-23T01:53:19.416Z,13.75
2023-05-23T01:55:46.745Z,13.81
2023-05-23T01:58:13.702Z,13.80
2023-05-23T02:00:41.081Z,13.79
2023-05-23T02:03:07.793Z,13.81
2023-05-23T02:05:34.667Z,13.76
2023-05-23T02:08:01.394Z,13.78
2023-05-23T02:10:28.099Z,13.66
2023-05-23T02:12:54.789Z,13.61
2023-05-23T02:15:21.421Z,13.56
2023-05-23T02:17:48.457Z,13.51
2023-05-23T02:20:15.311Z,13.47
2023-05-23T02:22:43.012Z,13.44
2023-05-23T02:25:10.007Z,13.43
2023-05-23T02:27:36.639Z,13.40
2023-05-23T02:30:03.381Z,13.38
2023-05-23T02:32:31.035Z,13.36
2023-05-23T02:34:58.311Z,13.35
2023-05-23T02:37:25.059Z,13.35
2023-05-23T02:39:52.701Z,13.31
2023-05-23T02:42:19.359Z,13.30
2023-05-23T02:44:45.963Z,13.29
2023-05-23T02:47:13.717Z,13.26
2023-05-23T02:49:43.003Z,13.25
2023-05-23T02:52:09.838Z,13.30
2023-05-23T02:54:36.558Z,13.28
2023-05-23T02:57:04.375Z,13.29
2023-05-23T02:59:31.008Z,13.30
2023-05-23T03:01:57.658Z,13.31
2023-05-23T03:04:25.044Z,13.31
2023-05-23T03:06:54.414Z,13.41
2023-05-23T03:09:21.697Z,13.46
2023-05-23T03:11:48.616Z,13.42
2023-05-23T03:14:15.490Z,13.43
2023-05-23T03:16:42.507Z,13.39
2023-05-23T03:19:11.780Z,13.44
2023-05-23T03:21:39.676Z,13.41
2023-05-23T03:24:07.797Z,13.34
2023-05-23T03:26:34.704Z,13.47
2023-05-23T03:29:01.613Z,13.48
2023-05-23T03:31:28.505Z,13.49
2023-05-23T03:33:55.371Z,13.52
2023-05-23T03:36:26.138Z,13.53
2023-05-23T03:38:53.427Z,13.51
2023-05-23T03:41:20.407Z,13.54
2023-05-23T03:43:47.432Z,13.54
2023-05-23T03:46:14.353Z,13.53
2023-05-23T03:48:41.530Z,13.56
2023-05-23T03:51:08.547Z,13.49
2023-05-23T03:53:36.744Z,13.60
2023-05-23T03:56:03.782Z,13.53
2023-05-23T03:58:30.690Z,13.59
2023-05-23T04:00:59.097Z,13.65
2023-05-23T04:03:28.639Z,13.64
2023-05-23T04:05:57.963Z,13.66
2023-05-23T04:08:24.965Z,13.67
2023-05-23T04:10:51.748Z,13.63
2023-05-23T04:13:18.614Z,13.59
2023-05-23T04:15:46.149Z,13.63
2023-05-23T04:18:12.997Z,13.66
2023-05-23T04:20:40.122Z,13.66
2023-05-23T04:23:06.830Z,13.62
2023-05-23T04:25:34.268Z,13.71
2023-05-23T04:28:01.500Z,13.68
2023-05-23T04:30:30.559Z,13.78
2023-05-23T04:33:00.132Z,13.80
2023-05-23T04:35:29.742Z,13.80
2023-05-23T04:37:56.892Z,13.76
2023-05-23T04:40:24.367Z,13.66
2023-05-23T04:42:54.400Z,13.74
2023-05-23T04:45:21.815Z,13.74
2023-05-23T04:47:48.540Z,13.81
2023-05-23T04:50:15.624Z,13.84
2023-05-23T04:52:42.482Z,13.98
2023-05-23T04:55:09.704Z,14.01
2023-05-23T04:57:37.284Z,14.12
2023-05-23T05:00:11.700Z,14.04
2023-05-23T05:02:39.594Z,14.18
2023-05-23T05:05:07.278Z,14.18
2023-05-23T05:07:36.014Z,14.03
2023-05-23T05:10:03.235Z,14.18
2023-05-23T05:12:30.907Z,14.31
2023-05-23T05:14:57.605Z,14.33
2023-05-23T05:17:25.035Z,14.42
2023-05-23T05:19:51.802Z,14.31
2023-05-23T05:22:18.475Z,14.45
2023-05-23T05:24:45.127Z,14.45
2023-05-23T05:27:12.035Z,14.48
2023-05-23T05:29:38.727Z,14.50
2023-05-23T05:32:09.196Z,14.53
2023-05-23T05:34:38.060Z,14.63
2023-05-23T05:37:06.171Z,14.69
2023-05-23T05:39:32.849Z,14.79
2023-05-23T05:42:01.368Z,14.81
2023-05-23T05:44:28.134Z,14.83
2023-05-23T05:46:55.761Z,14.80
2023-05-23T05:49:22.697Z,14.74
2023-05-23T05:51:49.506Z,14.71
2023-05-23T05:54:19.021Z,14.70
2023-05-23T05:56:47.183Z,14.66
2023-05-23T05:59:13.967Z,14.77
2023-05-23T06:01:41.705Z,14.55
2023-05-23T06:04:08.855Z,14.62
2023-05-23T06:06:35.650Z,14.63
2023-05-23T06:09:02.412Z,14.60
2023-05-23T06:11:29.005Z,14.60
2023-05-23T06:13:55.717Z,14.58
2023-05-23T06:16:23.053Z,14.70
2023-05-23T06:18:49.765Z,14.77
2023-05-23T06:21:17.560Z,14.84
2023-05-23T06:23:44.865Z,15.05
2023-05-23T06:26:11.679Z,15.25
2023-05-23T06:28:41.834Z,15.22
2023-05-23T06:31:11.059Z,15.03
2023-05-23T06:33:37.952Z,15.10
2023-05-23T06:36:05.731Z,15.18
2023-05-23T06:38:36.270Z,15.26
2023-05-23T06:41:03.960Z,15.11
2023-05-23T06:43:30.830Z,15.20
2023-05-23T06:45:57.633Z,15.22
2023-05-23T06:48:26.236Z,15.25
2023-05-23T06:50:53.976Z,15.23
2023-05-23T06:53:20.725Z,15.17
2023-05-23T06:55:47.541Z,15.22
2023-05-23T06:58:14.823Z,15.22
2023-05-23T07:00:41.937Z,15.19
2023-05-23T07:03:08.801Z,15.16
2023-05-23T07:05:40.028Z,15.22
2023-05-23T07:08:08.368Z,15.28
2023-05-23T07:10:35.479Z,15.48
2023-05-23T07:13:02.353Z,15.50
2023-05-23T07:15:29.055Z,15.55
2023-05-23T07:17:55.898Z,15.51
2023-05-23T07:20:22.808Z,15.56
2023-05-23T07:22:51.682Z,15.55
2023-05-23T07:25:18.870Z,15.57
2023-05-23T07:27:45.715Z,15.63
2023-05-23T07:30:12.595Z,15.58
2023-05-23T07:32:39.576Z,15.49
2023-05-23T07:35:06.674Z,15.60
2023-05-23T07:37:33.409Z,15.61
2023-05-23T07:40:01.454Z,15.57
2023-05-23T07:42:28.162Z,15.57
2023-05-23T07:44:54.846Z,15.54
2023-05-23T07:47:21.986Z,15.46
2023-05-23T07:49:48.780Z,15.42
2023-05-23T07:52:15.482Z,15.39
2023-05-23T07:54:42.765Z,15.26
2023-05-23T07:57:10.101Z,15.04
2023-05-23T07:59:37.073Z,15.08
2023-05-23T08:02:04.094Z,15.03
2023-05-23T08:04:31.225Z,14.95
2023-05-23T08:07:05.148Z,14.99
2023-05-23T08:09:32.674Z,15.08
2023-05-23T08:11:59.510Z,15.22
2023-05-23T08:14:38.180Z,15.34
2023-05-23T08:17:09.729Z,15.66
2023-05-23T08:19:37.004Z,15.91
2023-05-23T08:22:04.858Z,16.00
2023-05-23T08:24:34.455Z,15.89
2023-05-23T08:27:01.166Z,15.78
2023-05-23T08:29:28.417Z,15.78
2023-05-23T08:31:55.243Z,15.63
2023-05-23T08:34:22.120Z,15.62
2023-05-23T08:36:48.965Z,15.58
2023-05-23T08:39:16.411Z,15.54
2023-05-23T08:41:47.959Z,15.54
2023-05-23T08:44:16.407Z,15.57
2023-05-23T08:46:47.384Z,15.49
2023-05-23T08:49:18.854Z,15.62
2023-05-23T08:51:48.295Z,15.43
2023-05-23T08:54:19.279Z,15.42
2023-05-23T08:56:47.960Z,15.33
2023-05-23T08:59:16.390Z,15.25
2023-05-23T09:01:46.987Z,15.23
2023-05-23T09:04:13.818Z,15.18
2023-05-23T09:06:41.884Z,15.08
2023-05-23T09:09:09.790Z,14.94
2023-05-23T09:11:37.376Z,14.82
2023-05-23T09:14:09.001Z,14.75
2023-05-23T09:16:35.910Z,14.52
2023-05-23T09:19:14.029Z,14.41
2023-05-23T09:21:44.992Z,14.28
2023-05-23T09:24:12.750Z,14.44
2023-05-23T09:26:39.787Z,14.57
2023-05-23T09:29:07.585Z,14.53
2023-05-23T09:31:34.771Z,14.55
2023-05-23T09:34:01.744Z,14.57
2023-05-23T09:36:35.361Z,14.44
2023-05-23T09:39:08.102Z,14.53
2023-05-23T09:41:35.674Z,14.75
2023-05-23T09:44:08.040Z,14.83
2023-05-23T09:46:37.538Z,14.84
2023-05-23T09:49:15.644Z,14.90
2023-05-23T09:51:42.564Z,15.04
2023-05-23T09:54:09.788Z,15.21
2023-05-23T09:56:44.685Z,15.38
2023-05-23T09:59:13.886Z,15.29
2023-05-23T10:01:45.906Z,15.29
2023-05-23T10:04:14.813Z,15.41
2023-05-23T10:06:44.921Z,15.37
2023-05-23T10:09:17.571Z,15.69
2023-05-23T10:12:13.315Z,15.85
2023-05-23T10:14:45.586Z,15.81
2023-05-23T10:17:22.220Z,16.00
2023-05-23T10:19:54.275Z,16.10
2023-05-23T10:22:21.285Z,16.05
2023-05-23T10:24:48.533Z,15.93
2023-05-23T10:27:16.086Z,15.83
2023-05-23T10:29:44.040Z,15.82
2023-05-23T10:32:15.041Z,15.52
2023-05-23T10:34:59.880Z,15.24
2023-05-23T10:37:42.916Z,15.10
2023-05-23T10:40:38.988Z,15.12
2023-05-23T10:43:20.273Z,15.14
2023-05-23T10:45:50.611Z,15.24
2023-05-23T10:48:22.961Z,15.33
2023-05-23T10:51:07.540Z,15.29
2023-05-23T10:53:57.657Z,15.22
2023-05-23T10:56:24.821Z,15.09
2023-05-23T10:58:56.346Z,14.99
2023-05-23T11:01:24.006Z,14.87
2023-05-23T11:03:55.532Z,14.90
2023-05-23T11:06:45.405Z,15.01
2023-05-23T11:09:20.308Z,15.11
2023-05-23T11:12:07.663Z,14.79
2023-05-23T11:14:54.884Z,14.57
2023-05-23T11:17:33.856Z,14.14
2023-05-23T11:20:06.769Z,13.95
2023-05-23T11:22:34.748Z,13.85
2023-05-23T11:25:06.650Z,13.75
2023-05-23T11:27:38.107Z,13.71
2023-05-23T11:30:14.537Z,13.61
2023-05-23T11:32:42.566Z,13.39
2023-05-23T11:35:18.571Z,13.47
2023-05-23T11:37:45.297Z,13.46
2023-05-23T11:40:32.251Z,13.41
2023-05-23T11:43:06.181Z,13.19
2023-05-23T11:45:35.024Z,13.02
2023-05-23T11:48:13.113Z,13.10
2023-05-23T11:50:53.733Z,13.11
2023-05-23T11:53:22.798Z,12.97
2023-05-23T11:55:55.531Z,12.88
2023-05-23T11:58:26.356Z,12.73
2023-05-23T12:00:55.228Z,12.64
2023-05-23T12:03:22.547Z,12.46
2023-05-23T12:05:49.676Z,12.34
2023-05-23T12:08:16.361Z,12.21
2023-05-23T12:10:52.850Z,12.04
2023-05-23T12:13:20.588Z,11.85
2023-05-23T12:15:47.978Z,11.84
2023-05-23T12:18:16.688Z,11.59
2023-05-23T12:20:43.595Z,11.66
2023-05-23T12:23:19.090Z,11.60
2023-05-23T12:25:50.267Z,11.51
2023-05-23T12:28:16.882Z,11.43
2023-05-23T12:30:44.488Z,11.24
2023-05-23T12:33:12.190Z,11.10
2023-05-23T12:35:44.063Z,11.04
2023-05-23T12:38:17.493Z,11.00
2023-05-23T12:40:46.285Z,10.86
2023-05-23T12:43:15.994Z,10.90
2023-05-23T12:45:43.589Z,10.91
2023-05-23T12:48:11.427Z,10.83
2023-05-23T12:50:39.434Z,10.86
2023-05-23T12:53:06.127Z,10.80
2023-05-23T12:55:32.773Z,10.71
2023-05-23T12:57:59.439Z,10.57
2023-05-23T13:00:26.280Z,10.61
2023-05-23T13:02:53.132Z,10.57
2023-05-23T13:05:19.901Z,10.56
2023-05-23T13:07:47.700Z,10.47
2023-05-23T13:10:14.389Z,10.44
2023-05-23T13:12:42.609Z,10.44
2023-05-23T13:15:10.031Z,10.47
2023-05-23T13:17:37.059Z,10.61
2023-05-23T13:20:05.355Z,10.73
2023-05-23T13:22:32.090Z,10.56
2023-05-23T13:24:59.184Z,10.93
2023-05-23T13:27:26.193Z,10.92
2023-05-23T13:29:52.977Z,10.81
2023-05-23T13:32:19.838Z,10.75
2023-05-23T13:34:46.668Z,10.66
2023-05-23T13:37:13.415Z,10.60
2023-05-23T13:39:40.237Z,10.52
2023-05-23T13:42:08.012Z,10.40
2023-05-23T13:44:34.812Z,10.27
2023-05-23T13:47:14.764Z,10.34
2023-05-23T13:49:42.349Z,10.34
2023-05-23T13:52:09.142Z,10.38
2023-05-23T13:54:36.130Z,10.40
2023-05-23T13:57:02.894Z,10.55
2023-05-23T13:59:29.832Z,10.62
2023-05-23T14:01:56.561Z,10.66
2023-05-23T14:04:23.480Z,10.72
2023-05-23T14:06:50.983Z,10.63
2023-05-23T14:09:18.086Z,10.64
2023-05-23T14:11:44.832Z,10.84
2023-05-23T14:14:11.514Z,11.03
2023-05-23T14:16:39.025Z,11.17
2023-05-23T14:19:05.848Z,11.38
2023-05-23T14:21:33.782Z,11.50
2023-05-23T14:24:00.519Z,11.70
2023-05-23T14:26:27.595Z,11.94
2023-05-23T14:28:54.465Z,12.09
2023-05-23T14:31:21.904Z,12.29
2023-05-23T14:33:50.710Z,12.29
2023-05-23T14:36:17.927Z,12.27
2023-05-23T14:38:47.398Z,12.37
2023-05-23T14:41:14.306Z,12.61
2023-05-23T14:43:42.189Z,12.84
2023-05-23T14:46:09.189Z,12.96
2023-05-23T14:48:37.452Z,13.04
2023-05-23T14:51:04.615Z,13.01
2023-05-23T14:53:32.734Z,13.15
2023-05-23T14:55:59.535Z,13.51
2023-05-23T14:58:26.222Z,14.09
2023-05-23T15:00:53.341Z,14.59
2023-05-23T15:03:20.274Z,14.52
2023-05-23T15:05:48.889Z,14.14
2023-05-23T15:08:18.285Z,13.93
2023-05-23T15:10:46.099Z,13.57
2023-05-23T15:13:12.840Z,13.27
2023-05-23T15:15:41.071Z,13.25
2023-05-23T15:18:11.692Z,13.27
2023-05-23T15:20:38.561Z,13.49
2023-05-23T15:23:05.504Z,13.42
2023-05-23T15:25:47.693Z,13.46
2023-05-23T15:28:16.150Z,13.68
2023-05-23T15:30:43.703Z,13.75
2023-05-23T15:33:15.948Z,13.81
2023-05-23T15:35:43.280Z,13.61
2023-05-23T15:38:12.145Z,13.64
2023-05-23T15:40:42.054Z,13.52
2023-05-23T15:43:09.138Z,13.48
2023-05-23T15:45:35.961Z,13.82
2023-05-23T15:48:02.745Z,14.03
2023-05-23T15:50:29.430Z,14.18
2023-05-23T15:52:56.148Z,14.08
2023-05-23T15:55:22.871Z,13.92
2023-05-23T15:57:49.556Z,14.23
2023-05-23T16:00:16.564Z,14.40
2023-05-23T16:02:43.344Z,14.51
2023-05-23T16:05:10.281Z,14.29
2023-05-23T16:07:36.983Z,14.17
2023-05-23T16:10:03.853Z,13.60
2023-05-23T16:12:31.155Z,13.12
2023-05-23T16:14:58.243Z,12.74
2023-05-23T16:17:24.883Z,12.65
2023-05-23T16:19:57.599Z,12.65
2023-05-23T16:22:24.218Z,12.74
2023-05-23T16:24:51.901Z,12.71
2023-05-23T16:27:20.455Z,12.78
2023-05-23T16:29:48.127Z,12.94
2023-05-23T16:32:15.601Z,13.20
2023-05-23T16:34:43.151Z,13.46
2023-05-23T16:37:14.328Z,13.90
2023-05-23T16:39:43.741Z,14.26
2023-05-23T16:42:22.468Z,14.03
2023-05-23T16:44:54.330Z,13.91
2023-05-23T16:47:23.396Z,13.51
2023-05-23T16:49:50.915Z,13.41
2023-05-23T16:52:20.811Z,12.99
2023-05-23T16:54:47.594Z,12.72
2023-05-23T16:57:16.551Z,12.38
2023-05-23T16:59:44.554Z,12.14
2023-05-23T17:02:19.452Z,12.04
2023-05-23T17:04:54.188Z,11.75
2023-05-23T17:07:21.025Z,11.82
2023-05-23T17:09:53.071Z,11.70
2023-05-23T17:12:21.691Z,11.70
2023-05-23T17:14:49.108Z,11.78
2023-05-23T17:17:20.020Z,11.75
2023-05-23T17:19:48.460Z,11.78
2023-05-23T17:22:17.395Z,11.59
2023-05-23T17:24:47.089Z,11.76
2023-05-23T17:27:22.657Z,12.15
2023-05-23T17:29:54.222Z,12.37
2023-05-23T17:32:23.631Z,12.11
2023-05-23T17:35:08.886Z,11.75
2023-05-23T17:37:42.324Z,11.57
2023-05-23T17:40:12.306Z,11.48
2023-05-23T17:42:42.423Z,11.28
2023-05-23T17:45:17.475Z,11.15
2023-05-23T17:47:50.936Z,11.03
2023-05-23T17:50:24.616Z,10.90
2023-05-23T17:53:11.805Z,10.81
2023-05-23T17:55:38.712Z,10.82
2023-05-23T17:58:19.833Z,10.77
2023-05-23T18:00:59.814Z,10.59
2023-05-23T18:03:29.144Z,10.72
2023-05-23T18:05:55.930Z,10.73
2023-05-23T18:08:23.055Z,10.68
2023-05-23T18:10:50.210Z,10.68
2023-05-23T18:13:17.177Z,10.62
2023-05-23T18:15:47.488Z,10.63
2023-05-23T18:18:18.274Z,10.48
2023-05-23T18:20:47.993Z,10.38
2023-05-23T18:23:17.029Z,10.64
2023-05-23T18:25:47.065Z,10.47
2023-05-23T18:28:18.284Z,10.56
2023-05-23T18:30:45.353Z,10.72
2023-05-23T18:33:15.172Z,10.53
2023-05-23T18:35:45.082Z,10.58
2023-05-23T18:38:12.587Z,10.63
2023-05-23T18:40:42.153Z,10.61
2023-05-23T18:43:17.626Z,10.52
2023-05-23T18:45:46.581Z,10.51
2023-05-23T18:48:23.913Z,10.51
2023-05-23T18:50:51.494Z,10.44
2023-05-23T18:53:18.542Z,10.42
2023-05-23T18:55:45.435Z,10.37
2023-05-23T18:58:14.575Z,10.36
2023-05-23T19:00:48.051Z,10.35
2023-05-23T19:03:34.630Z,10.29
2023-05-23T19:06:06.340Z,10.30
2023-05-23T19:08:34.941Z,10.23
2023-05-23T19:11:06.666Z,10.21
2023-05-23T19:13:34.955Z,10.14
2023-05-23T19:16:02.129Z,9.87
2023-05-23T19:18:29.112Z,10.12
2023-05-23T19:20:59.245Z,10.04
2023-05-23T19:23:26.736Z,9.97
2023-05-23T19:25:56.075Z,9.76
2023-05-23T19:28:27.130Z,10.09
2023-05-23T19:30:56.119Z,9.79
2023-05-23T19:33:23.107Z,9.62
2023-05-23T19:35:54.495Z,9.82
2023-05-23T19:38:23.898Z,10.00
2023-05-23T19:40:52.755Z,9.97
2023-05-23T19:43:22.024Z,9.56
2023-05-23T19:45:54.186Z,9.42
2023-05-23T19:48:23.643Z,9.51
2023-05-23T19:50:51.636Z,9.86
2023-05-23T19:53:18.714Z,9.79
2023-05-23T19:55:45.635Z,9.82
2023-05-23T19:58:12.329Z,9.75
2023-05-23T20:00:39.124Z,9.74
2023-05-23T20:03:05.870Z,9.67
2023-05-23T20:05:32.910Z,9.70
2023-05-23T20:08:01.280Z,9.74
2023-05-23T20:10:27.887Z,9.72
2023-05-23T20:12:54.548Z,9.72
2023-05-23T20:15:31.180Z,9.65
2023-05-23T20:18:06.557Z,9.63
2023-05-23T20:20:34.531Z,9.69
2023-05-23T20:23:01.343Z,9.64
2023-05-23T20:25:31.531Z,9.69
2023-05-23T20:27:58.262Z,9.52
2023-05-23T20:30:25.439Z,9.72
2023-05-23T20:32:54.218Z,9.68
2023-05-23T20:35:22.288Z,9.68
2023-05-23T20:37:57.118Z,9.57
2023-05-23T20:40:25.749Z,9.66
2023-05-23T20:42:53.586Z,9.68
2023-05-23T20:45:22.323Z,9.63
2023-05-23T20:47:49.161Z,9.56
2023-05-23T20:50:17.484Z,9.67
2023-05-23T20:52:50.153Z,9.64
2023-05-23T20:55:18.970Z,9.60
2023-05-23T20:57:46.960Z,9.62
2023-05-23T21:00:14.016Z,9.59
2023-05-23T21:02:42.038Z,9.59
2023-05-23T21:05:12.992Z,9.58
2023-05-23T21:07:41.285Z,9.56
2023-05-23T21:10:08.494Z,9.59
2023-05-23T21:12:35.190Z,9.62
2023-05-23T21:15:01.967Z,9.61
2023-05-23T21:17:28.747Z,9.66
2023-05-23T21:19:55.610Z,9.65
2023-05-23T21:22:22.521Z,9.63
2023-05-23T21:24:50.453Z,9.63
2023-05-23T21:27:17.314Z,9.62
2023-05-23T21:29:44.036Z,9.61
2023-05-23T21:32:13.807Z,9.62
2023-05-23T21:34:43.969Z,9.62
2023-05-23T21:37:11.244Z,9.63
2023-05-23T21:39:51.230Z,9.61
2023-05-23T21:42:21.022Z,9.60
2023-05-23T21:44:48.126Z,9.60
2023-05-23T21:47:14.789Z,9.60
2023-05-23T21:49:42.011Z,9.53
2023-05-23T21:52:08.695Z,9.52
2023-05-23T21:54:35.579Z,9.49
2023-05-23T21:57:03.171Z,9.40
2023-05-23T21:59:29.942Z,9.43
2023-05-23T22:01:56.724Z,9.42
2023-05-23T22:04:23.489Z,9.38
2023-05-23T22:06:50.159Z,9.41
2023-05-23T22:09:16.956Z,9.42
2023-05-23T22:11:44.195Z,9.42
2023-05-23T22:14:12.140Z,9.41
2023-05-23T22:16:42.029Z,9.40
2023-05-23T22:19:10.444Z,9.42
2023-05-23T22:21:37.130Z,9.43
2023-05-23T22:24:04.351Z,9.43
2023-05-23T22:26:31.031Z,9.42
2023-05-23T22:28:57.745Z,9.38
2023-05-23T22:31:24.693Z,9.31
2023-05-23T22:33:51.522Z,9.32
2023-05-23T22:36:19.213Z,9.36
2023-05-23T22:38:46.025Z,9.36
2023-05-23T22:41:12.987Z,9.38
2023-05-23T22:43:41.821Z,9.36
2023-05-23T22:46:08.891Z,9.35
2023-05-23T22:48:35.599Z,9.26
2023-05-23T22:51:02.975Z,9.19
2023-05-23T22:53:30.371Z,9.14
2023-05-23T22:55:57.600Z,8.95
2023-05-23T22:58:25.294Z,9.05
2023-05-23T23:00:52.662Z,9.00
2023-05-23T23:03:20.354Z,9.06
2023-05-23T23:05:47.080Z,9.07
2023-05-23T23:08:13.898Z,9.13
2023-05-23T23:10:42.042Z,9.14
2023-05-23T23:13:08.926Z,9.16
2023-05-23T23:15:36.793Z,9.24
2023-05-23T23:18:05.597Z,9.23
2023-05-23T23:20:33.166Z,9.22
2023-05-23T23:23:00.395Z,9.18
2023-05-23T23:25:27.136Z,9.28
2023-05-23T23:27:53.894Z,9.27
2023-05-23T23:30:21.117Z,9.26
2023-05-23T23:32:47.894Z,9.26
2023-05-23T23:35:14.631Z,9.23
2023-05-23T23:37:41.411Z,9.21
2023-05-23T23:40:10.358Z,9.19
2023-05-23T23:42:37.250Z,9.13
2023-05-23T23:45:04.945Z,9.08
2023-05-23T23:47:32.708Z,8.91
2023-05-23T23:49:59.744Z,8.97
2023-05-23T23:52:28.197Z,8.91
2023-05-23T23:54:55.214Z,8.83
2023-05-23T23:57:22.011Z,8.74
2023-05-23T23:59:48.800Z,8.73
